createdAt,value
2019-03-30T00:01:39.681Z,4.60
2019-03-30T00:06:47.186Z,4.60
2019-03-30T00:11:57.727Z,4.60
2019-03-30T00:17:03.659Z,4.60
2019-03-30T00:22:11.107Z,4.30
2019-03-30T00:27:18.471Z,4.20
2019-03-30T00:32:25.818Z,4.20
2019-03-30T00:37:34.122Z,4.10
2019-03-30T00:42:41.383Z,4.00
2019-03-30T00:47:48.830Z,3.80
2019-03-30T00:52:56.103Z,3.80
2019-03-30T00:58:03.443Z,3.80
2019-03-30T01:03:10.715Z,3.70
2019-03-30T01:08:18.070Z,3.70
2019-03-30T01:13:26.525Z,3.80
2019-03-30T01:18:33.896Z,3.90
2019-03-30T01:23:41.253Z,3.90
2019-03-30T01:28:48.604Z,3.90
2019-03-30T01:33:55.863Z,3.70
2019-03-30T01:39:03.618Z,3.60
2019-03-30T01:44:10.978Z,3.50
2019-03-30T01:49:18.324Z,3.50
2019-03-30T01:54:25.608Z,3.40
2019-03-30T01:59:32.972Z,3.30
2019-03-30T02:04:40.156Z,3.30
2019-03-30T02:09:49.017Z,3.30
2019-03-30T02:14:56.296Z,3.20
2019-03-30T02:20:03.912Z,3.20
2019-03-30T02:25:12.269Z,3.10
2019-03-30T02:30:19.723Z,3.00
2019-03-30T02:35:27.164Z,3.00
2019-03-30T02:40:34.583Z,2.90
2019-03-30T02:45:42.824Z,2.90
2019-03-30T02:50:50.844Z,2.80
2019-03-30T02:55:58.234Z,2.80
2019-03-30T03:01:05.644Z,2.70
2019-03-30T03:06:13.488Z,2.70
2019-03-30T03:11:20.934Z,2.70
2019-03-30T03:16:28.227Z,2.60
2019-03-30T03:21:35.577Z,2.60
2019-03-30T03:26:42.924Z,2.60
2019-03-30T03:31:50.405Z,2.60
2019-03-30T03:36:57.825Z,2.50
2019-03-30T03:42:05.266Z,2.50
2019-03-30T03:47:12.614Z,2.50
2019-03-30T03:52:21.138Z,2.40
2019-03-30T03:57:31.475Z,2.30
2019-03-30T04:02:40.008Z,2.40
2019-03-30T04:07:51.345Z,2.40
2019-03-30T04:13:06.727Z,2.30
2019-03-30T04:18:11.325Z,2.30
2019-03-30T04:23:18.795Z,2.30
2019-03-30T04:28:26.162Z,2.30
2019-03-30T04:33:33.507Z,2.20
2019-03-30T04:38:40.859Z,2.10
2019-03-30T04:43:48.138Z,2.10
2019-03-30T04:48:55.433Z,2.30
2019-03-30T04:54:02.787Z,2.30
2019-03-30T04:59:10.062Z,2.30
2019-03-30T05:04:17.428Z,2.40
2019-03-30T05:09:24.930Z,2.40
2019-03-30T05:14:32.405Z,2.60
2019-03-30T05:19:40.842Z,2.70
2019-03-30T05:24:48.266Z,2.70
2019-03-30T05:29:55.633Z,2.70
2019-03-30T05:35:02.988Z,2.70
2019-03-30T05:40:11.575Z,2.70
2019-03-30T05:45:18.995Z,2.90
2019-03-30T05:50:26.491Z,3.10
2019-03-30T05:55:33.851Z,3.30
2019-03-30T06:00:41.276Z,3.50
2019-03-30T06:05:48.709Z,3.70
2019-03-30T06:10:56.138Z,3.90
2019-03-30T06:16:04.065Z,4.30
2019-03-30T06:21:11.330Z,4.60
2019-03-30T06:26:19.645Z,4.90
2019-03-30T06:31:26.915Z,5.20
2019-03-30T06:36:34.126Z,5.50
2019-03-30T06:41:41.324Z,5.70
2019-03-30T06:46:48.851Z,6.20
2019-03-30T06:51:56.232Z,6.50
2019-03-30T06:57:04.483Z,6.90
2019-03-30T07:02:12.191Z,7.20
2019-03-30T07:07:21.144Z,7.50
2019-03-30T07:12:31.436Z,7.90
2019-03-30T07:17:48.705Z,8.20
2019-03-30T07:23:10.724Z,8.50
2019-03-30T07:28:06.203Z,8.90
2019-03-30T07:33:13.482Z,9.20
2019-03-30T07:38:20.883Z,9.50
2019-03-30T07:43:28.273Z,9.80
2019-03-30T07:48:35.654Z,10.20
2019-03-30T07:53:44.656Z,10.50
2019-03-30T07:58:52.625Z,10.70
2019-03-30T08:04:00.045Z,11.00
2019-03-30T08:09:08.102Z,11.20
2019-03-30T08:14:15.519Z,11.40
2019-03-30T08:19:22.947Z,11.70
2019-03-30T08:24:30.181Z,12.00
2019-03-30T08:29:37.552Z,12.20
2019-03-30T08:34:44.982Z,12.50
2019-03-30T08:39:52.450Z,12.70
2019-03-30T08:44:59.890Z,12.90
2019-03-30T08:50:09.944Z,13.20
2019-03-30T08:55:17.419Z,13.40
2019-03-30T09:00:42.645Z,13.70
2019-03-30T09:05:50.016Z,14.00
2019-03-30T09:10:57.592Z,14.30
2019-03-30T09:16:05.093Z,14.50
2019-03-30T09:21:12.454Z,14.60
2019-03-30T09:26:19.938Z,14.70
2019-03-30T09:31:27.501Z,15.00
2019-03-30T09:36:35.227Z,15.20
2019-03-30T09:41:44.301Z,15.20
2019-03-30T09:46:51.726Z,15.30
2019-03-30T09:52:00.195Z,15.60
2019-03-30T09:57:10.155Z,15.70
2019-03-30T10:02:17.995Z,15.80
2019-03-30T10:07:25.529Z,16.10
2019-03-30T10:12:33.181Z,15.90
2019-03-30T10:17:42.841Z,16.00
2019-03-30T10:22:50.483Z,16.30
2019-03-30T10:27:58.372Z,16.40
2019-03-30T10:33:06.251Z,16.40
2019-03-30T10:38:13.714Z,16.50
2019-03-30T10:43:40.299Z,16.70
2019-03-30T10:48:48.503Z,16.90
2019-03-30T10:53:55.930Z,17.00
2019-03-30T10:59:06.313Z,17.10
2019-03-30T11:04:14.253Z,17.10
2019-03-30T11:09:23.372Z,17.40
2019-03-30T11:14:30.759Z,17.30
2019-03-30T11:19:38.167Z,17.10
2019-03-30T11:24:45.551Z,17.40
2019-03-30T11:29:53.116Z,17.40
2019-03-30T11:35:00.589Z,17.40
2019-03-30T11:40:09.568Z,17.50
2019-03-30T11:45:17.479Z,17.80
2019-03-30T11:50:26.162Z,18.00
2019-03-30T11:55:33.819Z,18.20
2019-03-30T12:00:41.295Z,18.10
2019-03-30T12:05:48.811Z,18.50
2019-03-30T12:10:56.338Z,18.70
2019-03-30T12:16:03.860Z,18.60
2019-03-30T12:21:11.392Z,18.40
2019-03-30T12:26:18.859Z,18.40
2019-03-30T12:31:26.322Z,18.40
2019-03-30T12:36:35.580Z,18.60
2019-03-30T12:41:43.173Z,18.60
2019-03-30T12:46:50.551Z,18.60
2019-03-30T12:51:58.008Z,18.80
2019-03-30T12:57:05.488Z,19.20
2019-03-30T13:02:12.937Z,19.00
2019-03-30T13:07:20.231Z,19.10
2019-03-30T13:12:27.645Z,19.10
2019-03-30T13:17:35.071Z,19.20
2019-03-30T13:22:42.473Z,19.10
2019-03-30T13:27:53.142Z,19.30
2019-03-30T13:32:58.889Z,19.60
2019-03-30T13:38:06.456Z,19.80
2019-03-30T13:43:13.949Z,19.60
2019-03-30T13:48:21.366Z,19.60
2019-03-30T13:53:28.759Z,19.90
2019-03-30T13:58:36.589Z,19.80
2019-03-30T14:03:44.303Z,20.00
2019-03-30T14:08:51.683Z,19.80
2019-03-30T14:13:59.154Z,19.90
2019-03-30T14:19:06.657Z,19.90
2019-03-30T14:24:14.225Z,19.80
2019-03-30T14:29:21.628Z,19.70
2019-03-30T14:34:29.020Z,19.60
2019-03-30T14:39:36.513Z,19.50
2019-03-30T14:44:44.326Z,19.50
2019-03-30T14:49:52.290Z,19.50
2019-03-30T14:54:59.779Z,19.50
2019-03-30T15:00:08.649Z,19.40
2019-03-30T15:05:17.763Z,19.30
2019-03-30T15:10:25.645Z,19.30
2019-03-30T15:15:33.106Z,19.10
2019-03-30T15:20:40.501Z,19.20
2019-03-30T15:25:49.308Z,19.00
2019-03-30T15:30:56.763Z,19.00
2019-03-30T15:36:04.142Z,19.20
2019-03-30T15:41:11.582Z,19.20
2019-03-30T15:46:19.048Z,19.20
2019-03-30T15:51:26.750Z,19.20
2019-03-30T15:56:34.035Z,19.30
2019-03-30T16:01:41.316Z,19.30
2019-03-30T16:06:48.779Z,19.40
2019-03-30T16:11:56.325Z,19.30
2019-03-30T16:17:03.693Z,19.20
2019-03-30T16:22:11.092Z,19.10
2019-03-30T16:27:28.682Z,18.90
2019-03-30T16:32:27.606Z,18.60
2019-03-30T16:37:35.175Z,18.20
2019-03-30T16:42:42.386Z,18.00
2019-03-30T16:47:49.779Z,17.80
2019-03-30T16:52:57.096Z,17.30
2019-03-30T16:58:04.763Z,17.00
2019-03-30T17:03:12.338Z,16.70
2019-03-30T17:08:19.735Z,16.30
2019-03-30T17:13:27.516Z,15.80
2019-03-30T17:18:35.121Z,15.40
2019-03-30T17:23:44.527Z,15.00
2019-03-30T17:28:52.063Z,14.60
2019-03-30T17:34:00.024Z,14.20
2019-03-30T17:39:11.289Z,13.80
2019-03-30T17:44:18.760Z,13.50
2019-03-30T17:49:26.058Z,13.10
2019-03-30T17:54:35.471Z,12.70
2019-03-30T17:59:43.094Z,12.50
2019-03-30T18:04:51.770Z,12.30
2019-03-30T18:10:03.142Z,12.10
2019-03-30T18:15:10.018Z,11.80
2019-03-30T18:20:18.086Z,11.60
2019-03-30T18:25:25.850Z,11.30
2019-03-30T18:30:39.755Z,11.10
2019-03-30T18:35:47.734Z,10.80
2019-03-30T18:40:55.328Z,10.60
2019-03-30T18:46:03.183Z,10.40
2019-03-30T18:51:10.633Z,10.20
2019-03-30T18:56:18.140Z,10.10
2019-03-30T19:01:27.557Z,10.00
2019-03-30T19:06:35.101Z,9.80
2019-03-30T19:11:43.079Z,9.70
2019-03-30T19:16:50.608Z,9.60
2019-03-30T19:21:58.068Z,9.40
2019-03-30T19:27:05.428Z,9.30
2019-03-30T19:32:12.904Z,9.30
2019-03-30T19:37:20.238Z,9.20
2019-03-30T19:42:27.435Z,9.00
2019-03-30T19:47:34.786Z,8.90
2019-03-30T19:52:42.315Z,8.80
2019-03-30T19:57:49.805Z,8.60
2019-03-30T20:02:57.405Z,8.40
2019-03-30T20:08:12.058Z,8.20
2019-03-30T20:13:13.788Z,8.30
2019-03-30T20:18:21.147Z,8.10
2019-03-30T20:23:28.583Z,8.00
2019-03-30T20:28:35.933Z,7.80
2019-03-30T20:33:43.214Z,7.80
2019-03-30T20:38:50.542Z,7.70
2019-03-30T20:43:58.020Z,7.70
2019-03-30T20:49:05.712Z,7.60
2019-03-30T20:54:13.106Z,7.40
2019-03-30T20:59:20.452Z,7.40
2019-03-30T21:04:27.714Z,7.30
2019-03-30T21:09:34.972Z,7.40
2019-03-30T21:14:42.165Z,7.30
2019-03-30T21:19:49.563Z,7.30
2019-03-30T21:24:56.932Z,7.30
2019-03-30T21:30:05.427Z,7.30
2019-03-30T21:35:14.131Z,7.30
2019-03-30T21:40:21.543Z,7.30
2019-03-30T21:45:28.956Z,7.30
2019-03-30T21:50:36.308Z,7.30
2019-03-30T21:55:43.645Z,7.30
2019-03-30T22:00:51.038Z,7.20
2019-03-30T22:05:58.673Z,7.10
2019-03-30T22:11:06.055Z,6.90
2019-03-30T22:16:13.531Z,6.90
2019-03-30T22:21:20.775Z,6.80
2019-03-30T22:26:29.024Z,6.90
2019-03-30T22:31:36.453Z,6.90
2019-03-30T22:36:43.799Z,7.00
2019-03-30T22:41:51.221Z,7.00
2019-03-30T22:46:58.649Z,7.10
2019-03-30T22:52:06.119Z,7.10
2019-03-30T22:57:13.568Z,7.10
2019-03-30T23:02:21.272Z,7.10
2019-03-30T23:07:28.770Z,7.10
2019-03-30T23:12:36.205Z,7.10
2019-03-30T23:17:43.585Z,7.10
2019-03-30T23:22:50.763Z,7.20
2019-03-30T23:27:58.184Z,7.40
2019-03-30T23:33:05.710Z,7.70
2019-03-30T23:38:13.207Z,7.80
2019-03-30T23:43:20.489Z,7.80
2019-03-30T23:48:27.953Z,7.60
2019-03-30T23:53:35.214Z,7.40
2019-03-30T23:58:42.479Z,7.20
